sensor_id;sensor_type;location;lat;lon;timestamp;P1;durP1;ratioP1;P2;durP2;ratioP2
21299;SDS011;10809;49.476;11.016;2022-09-06T00:01:30;2.95;;;1.60;;
21299;SDS011;10809;49.476;11.016;2022-09-06T00:04:01;1.63;;;1.52;;
21299;SDS011;10809;49.476;11.016;2022-09-06T00:06:31;2.08;;;1.98;;
21299;SDS011;10809;49.476;11.016;2022-09-06T00:09:02;2.03;;;1.90;;
21299;SDS011;10809;49.476;11.016;2022-09-06T00:11:32;2.70;;;2.00;;
21299;SDS011;10809;49.476;11.016;2022-09-06T00:14:02;2.55;;;2.25;;
21299;SDS011;10809;49.476;11.016;2022-09-06T00:16:36;2.80;;;1.90;;
21299;SDS011;10809;49.476;11.016;2022-09-06T00:19:06;1.92;;;1.70;;
21299;SDS011;10809;49.476;11.016;2022-09-06T00:21:36;1.67;;;1.55;;
21299;SDS011;10809;49.476;11.016;2022-09-06T00:24:07;4.30;;;2.35;;
21299;SDS011;10809;49.476;11.016;2022-09-06T00:26:37;2.15;;;1.90;;
21299;SDS011;10809;49.476;11.016;2022-09-06T00:29:07;1.98;;;1.75;;
21299;SDS011;10809;49.476;11.016;2022-09-06T00:31:38;1.80;;;1.67;;
21299;SDS011;10809;49.476;11.016;2022-09-06T00:34:08;2.05;;;1.85;;
21299;SDS011;10809;49.476;11.016;2022-09-06T00:36:38;2.17;;;2.08;;
21299;SDS011;10809;49.476;11.016;2022-09-06T00:39:09;2.03;;;1.92;;
21299;SDS011;10809;49.476;11.016;2022-09-06T00:41:42;2.88;;;1.90;;
21299;SDS011;10809;49.476;11.016;2022-09-06T00:44:12;2.75;;;1.98;;
21299;SDS011;10809;49.476;11.016;2022-09-06T00:46:43;3.20;;;1.90;;
21299;SDS011;10809;49.476;11.016;2022-09-06T00:49:27;2.03;;;1.83;;
21299;SDS011;10809;49.476;11.016;2022-09-06T00:52:01;1.98;;;1.77;;
21299;SDS011;10809;49.476;11.016;2022-09-06T00:54:34;3.20;;;1.70;;
21299;SDS011;10809;49.476;11.016;2022-09-06T00:57:04;2.05;;;1.90;;
21299;SDS011;10809;49.476;11.016;2022-09-06T00:59:36;3.35;;;2.20;;
21299;SDS011;10809;49.476;11.016;2022-09-06T01:02:11;1.98;;;1.77;;
21299;SDS011;10809;49.476;11.016;2022-09-06T01:04:42;3.42;;;2.00;;
21299;SDS011;10809;49.476;11.016;2022-09-06T01:07:17;2.15;;;1.95;;
21299;SDS011;10809;49.476;11.016;2022-09-06T01:16:00;2.22;;;2.03;;
21299;SDS011;10809;49.476;11.016;2022-09-06T01:36:41;2.08;;;1.85;;
21299;SDS011;10809;49.476;11.016;2022-09-06T01:39:24;3.28;;;2.25;;
21299;SDS011;10809;49.476;11.016;2022-09-06T01:41:57;1.95;;;1.73;;
21299;SDS011;10809;49.476;11.016;2022-09-06T01:44:33;2.20;;;1.80;;
21299;SDS011;10809;49.476;11.016;2022-09-06T01:53:13;2.03;;;1.92;;
21299;SDS011;10809;49.476;11.016;2022-09-06T02:01:34;3.65;;;2.78;;
21299;SDS011;10809;49.476;11.016;2022-09-06T02:04:27;3.28;;;1.85;;
21299;SDS011;10809;49.476;11.016;2022-09-06T02:10:12;1.80;;;1.70;;
21299;SDS011;10809;49.476;11.016;2022-09-06T02:12:48;1.92;;;1.83;;
21299;SDS011;10809;49.476;11.016;2022-09-06T02:15:33;2.67;;;2.47;;
21299;SDS011;10809;49.476;11.016;2022-09-06T02:18:14;1.83;;;1.67;;
21299;SDS011;10809;49.476;11.016;2022-09-06T02:21:13;3.33;;;1.70;;
21299;SDS011;10809;49.476;11.016;2022-09-06T02:23:47;2.15;;;1.95;;
21299;SDS011;10809;49.476;11.016;2022-09-06T02:26:21;2.38;;;2.10;;
21299;SDS011;10809;49.476;11.016;2022-09-06T02:28:57;1.83;;;1.60;;
21299;SDS011;10809;49.476;11.016;2022-09-06T02:31:36;2.30;;;2.08;;
21299;SDS011;10809;49.476;11.016;2022-09-06T02:34:16;2.15;;;1.95;;
21299;SDS011;10809;49.476;11.016;2022-09-06T02:36:48;3.30;;;1.65;;
21299;SDS011;10809;49.476;11.016;2022-09-06T02:39:19;1.88;;;1.55;;
21299;SDS011;10809;49.476;11.016;2022-09-06T02:41:52;2.38;;;1.75;;
21299;SDS011;10809;49.476;11.016;2022-09-06T02:44:23;1.75;;;1.65;;
21299;SDS011;10809;49.476;11.016;2022-09-06T02:46:54;2.40;;;2.00;;
21299;SDS011;10809;49.476;11.016;2022-09-06T02:49:26;2.15;;;1.67;;
21299;SDS011;10809;49.476;11.016;2022-09-06T02:51:57;4.60;;;2.13;;
21299;SDS011;10809;49.476;11.016;2022-09-06T02:54:30;2.00;;;1.88;;
21299;SDS011;10809;49.476;11.016;2022-09-06T02:57:01;2.08;;;1.85;;
21299;SDS011;10809;49.476;11.016;2022-09-06T02:59:31;3.42;;;2.00;;
21299;SDS011;10809;49.476;11.016;2022-09-06T03:02:02;2.17;;;2.00;;
21299;SDS011;10809;49.476;11.016;2022-09-06T03:04:32;2.08;;;1.90;;
21299;SDS011;10809;49.476;11.016;2022-09-06T03:07:02;3.83;;;2.35;;
21299;SDS011;10809;49.476;11.016;2022-09-06T03:09:33;3.38;;;2.70;;
21299;SDS011;10809;49.476;11.016;2022-09-06T03:12:04;2.55;;;1.95;;
21299;SDS011;10809;49.476;11.016;2022-09-06T03:14:34;3.15;;;2.40;;
21299;SDS011;10809;49.476;11.016;2022-09-06T03:17:05;2.88;;;2.60;;
21299;SDS011;10809;49.476;11.016;2022-09-06T03:19:35;5.32;;;2.60;;
21299;SDS011;10809;49.476;11.016;2022-09-06T03:22:05;2.50;;;2.35;;
21299;SDS011;10809;49.476;11.016;2022-09-06T03:24:36;2.22;;;2.03;;
21299;SDS011;10809;49.476;11.016;2022-09-06T03:27:06;4.78;;;2.40;;
21299;SDS011;10809;49.476;11.016;2022-09-06T03:29:40;2.40;;;2.20;;
21299;SDS011;10809;49.476;11.016;2022-09-06T03:32:10;2.85;;;2.42;;
21299;SDS011;10809;49.476;11.016;2022-09-06T03:34:40;2.33;;;2.13;;
21299;SDS011;10809;49.476;11.016;2022-09-06T03:37:11;3.88;;;2.13;;
21299;SDS011;10809;49.476;11.016;2022-09-06T03:39:44;2.65;;;2.45;;
21299;SDS011;10809;49.476;11.016;2022-09-06T03:42:17;3.67;;;2.47;;
21299;SDS011;10809;49.476;11.016;2022-09-06T03:44:48;2.60;;;2.40;;
21299;SDS011;10809;49.476;11.016;2022-09-06T03:47:18;2.42;;;2.30;;
21299;SDS011;10809;49.476;11.016;2022-09-06T03:49:49;4.38;;;2.60;;
21299;SDS011;10809;49.476;11.016;2022-09-06T03:52:20;2.83;;;2.58;;
21299;SDS011;10809;49.476;11.016;2022-09-06T03:54:50;3.05;;;2.30;;
21299;SDS011;10809;49.476;11.016;2022-09-06T03:57:21;3.25;;;3.00;;
21299;SDS011;10809;49.476;11.016;2022-09-06T03:59:51;3.53;;;2.60;;
21299;SDS011;10809;49.476;11.016;2022-09-06T04:02:22;3.30;;;3.00;;
21299;SDS011;10809;49.476;11.016;2022-09-06T04:04:52;3.22;;;2.92;;
21299;SDS011;10809;49.476;11.016;2022-09-06T04:07:24;2.85;;;2.53;;
21299;SDS011;10809;49.476;11.016;2022-09-06T04:09:57;3.35;;;2.92;;
21299;SDS011;10809;49.476;11.016;2022-09-06T04:12:28;3.47;;;2.92;;
21299;SDS011;10809;49.476;11.016;2022-09-06T04:14:58;2.70;;;2.50;;
21299;SDS011;10809;49.476;11.016;2022-09-06T04:17:28;4.00;;;2.80;;
21299;SDS011;10809;49.476;11.016;2022-09-06T04:19:59;3.00;;;2.80;;
21299;SDS011;10809;49.476;11.016;2022-09-06T04:22:29;3.50;;;2.60;;
21299;SDS011;10809;49.476;11.016;2022-09-06T04:25:00;3.33;;;3.05;;
21299;SDS011;10809;49.476;11.016;2022-09-06T04:27:36;4.20;;;3.10;;
21299;SDS011;10809;49.476;11.016;2022-09-06T04:30:06;3.47;;;3.17;;
21299;SDS011;10809;49.476;11.016;2022-09-06T04:32:37;4.88;;;3.22;;
21299;SDS011;10809;49.476;11.016;2022-09-06T04:35:08;3.53;;;3.22;;
21299;SDS011;10809;49.476;11.016;2022-09-06T04:37:38;3.42;;;3.13;;
21299;SDS011;10809;49.476;11.016;2022-09-06T04:40:09;4.45;;;3.42;;
21299;SDS011;10809;49.476;11.016;2022-09-06T04:42:39;3.47;;;3.17;;
21299;SDS011;10809;49.476;11.016;2022-09-06T04:45:10;3.75;;;3.45;;
21299;SDS011;10809;49.476;11.016;2022-09-06T04:47:41;3.72;;;3.22;;
21299;SDS011;10809;49.476;11.016;2022-09-06T04:50:11;3.92;;;3.63;;
21299;SDS011;10809;49.476;11.016;2022-09-06T04:52:41;8.43;;;3.63;;
21299;SDS011;10809;49.476;11.016;2022-09-06T04:55:15;4.88;;;3.85;;
21299;SDS011;10809;49.476;11.016;2022-09-06T04:57:45;3.72;;;3.50;;
21299;SDS011;10809;49.476;11.016;2022-09-06T05:00:15;5.72;;;3.78;;
21299;SDS011;10809;49.476;11.016;2022-09-06T05:02:46;4.57;;;4.03;;
21299;SDS011;10809;49.476;11.016;2022-09-06T05:05:23;4.75;;;4.35;;
21299;SDS011;10809;49.476;11.016;2022-09-06T05:07:54;4.47;;;3.58;;
21299;SDS011;10809;49.476;11.016;2022-09-06T05:10:25;5.55;;;4.28;;
21299;SDS011;10809;49.476;11.016;2022-09-06T05:12:55;4.40;;;4.10;;
21299;SDS011;10809;49.476;11.016;2022-09-06T05:15:26;4.30;;;3.90;;
21299;SDS011;10809;49.476;11.016;2022-09-06T05:18:03;5.25;;;4.53;;
21299;SDS011;10809;49.476;11.016;2022-09-06T05:20:39;4.13;;;3.72;;
21299;SDS011;10809;49.476;11.016;2022-09-06T05:23:10;4.10;;;3.75;;
21299;SDS011;10809;49.476;11.016;2022-09-06T05:25:40;4.53;;;4.13;;
21299;SDS011;10809;49.476;11.016;2022-09-06T05:28:11;4.18;;;3.88;;
21299;SDS011;10809;49.476;11.016;2022-09-06T05:30:41;4.55;;;4.13;;
21299;SDS011;10809;49.476;11.016;2022-09-06T05:33:12;4.40;;;4.03;;
21299;SDS011;10809;49.476;11.016;2022-09-06T05:35:48;5.22;;;4.72;;
21299;SDS011;10809;49.476;11.016;2022-09-06T05:38:24;7.43;;;4.97;;
21299;SDS011;10809;49.476;11.016;2022-09-06T05:40:55;4.85;;;4.43;;
21299;SDS011;10809;49.476;11.016;2022-09-06T05:43:25;4.93;;;4.22;;
21299;SDS011;10809;49.476;11.016;2022-09-06T05:45:55;6.80;;;5.05;;
21299;SDS011;10809;49.476;11.016;2022-09-06T05:48:29;5.43;;;4.65;;
21299;SDS011;10809;49.476;11.016;2022-09-06T05:51:00;5.32;;;4.82;;
21299;SDS011;10809;49.476;11.016;2022-09-06T05:53:49;5.30;;;4.80;;
21299;SDS011;10809;49.476;11.016;2022-09-06T05:56:20;5.13;;;4.53;;
21299;SDS011;10809;49.476;11.016;2022-09-06T05:58:51;5.13;;;4.68;;
21299;SDS011;10809;49.476;11.016;2022-09-06T06:01:25;4.22;;;3.85;;
21299;SDS011;10809;49.476;11.016;2022-09-06T06:03:58;5.03;;;4.40;;
21299;SDS011;10809;49.476;11.016;2022-09-06T06:06:33;5.30;;;4.80;;
21299;SDS011;10809;49.476;11.016;2022-09-06T06:09:04;5.05;;;4.47;;
21299;SDS011;10809;49.476;11.016;2022-09-06T06:11:34;8.20;;;5.05;;
21299;SDS011;10809;49.476;11.016;2022-09-06T06:14:04;5.93;;;5.28;;
21299;SDS011;10809;49.476;11.016;2022-09-06T06:16:35;4.95;;;4.55;;
21299;SDS011;10809;49.476;11.016;2022-09-06T06:19:06;5.50;;;4.70;;
21299;SDS011;10809;49.476;11.016;2022-09-06T06:21:36;5.55;;;4.80;;
21299;SDS011;10809;49.476;11.016;2022-09-06T06:24:07;4.78;;;4.38;;
21299;SDS011;10809;49.476;11.016;2022-09-06T06:26:38;5.45;;;3.88;;
21299;SDS011;10809;49.476;11.016;2022-09-06T06:29:11;6.63;;;4.93;;
21299;SDS011;10809;49.476;11.016;2022-09-06T06:31:41;5.60;;;5.10;;
21299;SDS011;10809;49.476;11.016;2022-09-06T06:34:12;5.43;;;4.95;;
21299;SDS011;10809;49.476;11.016;2022-09-06T06:36:42;5.63;;;5.13;;
21299;SDS011;10809;49.476;11.016;2022-09-06T06:39:15;5.43;;;4.93;;
21299;SDS011;10809;49.476;11.016;2022-09-06T06:41:48;4.72;;;4.30;;
21299;SDS011;10809;49.476;11.016;2022-09-06T06:44:33;6.90;;;5.32;;
21299;SDS011;10809;49.476;11.016;2022-09-06T06:47:03;9.40;;;4.72;;
21299;SDS011;10809;49.476;11.016;2022-09-06T06:49:34;5.10;;;4.60;;
21299;SDS011;10809;49.476;11.016;2022-09-06T06:52:04;5.50;;;5.00;;
21299;SDS011;10809;49.476;11.016;2022-09-06T06:54:34;6.20;;;5.43;;
21299;SDS011;10809;49.476;11.016;2022-09-06T10:19:41;5.00;;;3.00;;
21299;SDS011;10809;49.476;11.016;2022-09-06T10:22:34;2.50;;;2.30;;
21299;SDS011;10809;49.476;11.016;2022-09-06T10:25:52;2.80;;;2.38;;
21299;SDS011;10809;49.476;11.016;2022-09-06T10:28:44;2.40;;;2.20;;
21299;SDS011;10809;49.476;11.016;2022-09-06T10:40:11;3.72;;;1.90;;
21299;SDS011;10809;49.476;11.016;2022-09-06T10:42:51;2.15;;;1.73;;
21299;SDS011;10809;49.476;11.016;2022-09-06T10:50:59;5.55;;;2.25;;
21299;SDS011;10809;49.476;11.016;2022-09-06T10:59:20;1.10;;;1.10;;
21299;SDS011;10809;49.476;11.016;2022-09-06T11:04:48;1.40;;;1.35;;
21299;SDS011;10809;49.476;11.016;2022-09-06T11:07:26;1.20;;;1.20;;
21299;SDS011;10809;49.476;11.016;2022-09-06T11:10:09;3.22;;;1.02;;
21299;SDS011;10809;49.476;11.016;2022-09-06T11:12:51;1.80;;;1.45;;
21299;SDS011;10809;49.476;11.016;2022-09-06T11:15:40;1.42;;;0.88;;
21299;SDS011;10809;49.476;11.016;2022-09-06T11:18:25;0.95;;;0.80;;
21299;SDS011;10809;49.476;11.016;2022-09-06T11:21:20;3.70;;;0.98;;
21299;SDS011;10809;49.476;11.016;2022-09-06T11:29:44;1.50;;;1.08;;
21299;SDS011;10809;49.476;11.016;2022-09-06T11:32:28;1.10;;;0.98;;
21299;SDS011;10809;49.476;11.016;2022-09-06T11:35:05;0.77;;;0.75;;
21299;SDS011;10809;49.476;11.016;2022-09-06T11:37:40;2.80;;;1.30;;
21299;SDS011;10809;49.476;11.016;2022-09-06T11:40:14;1.80;;;1.30;;
21299;SDS011;10809;49.476;11.016;2022-09-06T11:50:59;1.73;;;1.15;;
21299;SDS011;10809;49.476;11.016;2022-09-06T11:57:27;0.65;;;0.65;;
21299;SDS011;10809;49.476;11.016;2022-09-06T12:00:00;0.95;;;0.95;;
21299;SDS011;10809;49.476;11.016;2022-09-06T12:02:39;1.77;;;1.17;;
21299;SDS011;10809;49.476;11.016;2022-09-06T12:10:55;1.90;;;1.40;;
21299;SDS011;10809;49.476;11.016;2022-09-06T12:13:31;1.42;;;0.88;;
21299;SDS011;10809;49.476;11.016;2022-09-06T12:16:05;1.08;;;0.82;;
21299;SDS011;10809;49.476;11.016;2022-09-06T12:25:13;1.65;;;0.93;;
21299;SDS011;10809;49.476;11.016;2022-09-06T12:27:23;1.48;;;1.30;;
21299;SDS011;10809;49.476;11.016;2022-09-06T12:30:07;1.20;;;1.20;;
21299;SDS011;10809;49.476;11.016;2022-09-06T12:32:41;1.13;;;1.02;;
21299;SDS011;10809;49.476;11.016;2022-09-06T12:35:20;1.38;;;1.10;;
21299;SDS011;10809;49.476;11.016;2022-09-06T12:37:54;1.25;;;1.08;;
21299;SDS011;10809;49.476;11.016;2022-09-06T12:40:29;1.85;;;1.20;;
21299;SDS011;10809;49.476;11.016;2022-09-06T12:43:03;0.90;;;0.90;;
21299;SDS011;10809;49.476;11.016;2022-09-06T12:45:34;2.05;;;1.20;;
21299;SDS011;10809;49.476;11.016;2022-09-06T12:48:09;2.72;;;1.10;;
21299;SDS011;10809;49.476;11.016;2022-09-06T12:50:41;1.30;;;1.15;;
21299;SDS011;10809;49.476;11.016;2022-09-06T12:53:19;2.60;;;0.90;;
21299;SDS011;10809;49.476;11.016;2022-09-06T12:56:07;2.63;;;1.42;;
21299;SDS011;10809;49.476;11.016;2022-09-06T12:58:47;1.10;;;0.98;;
21299;SDS011;10809;49.476;11.016;2022-09-06T13:01:22;1.25;;;1.15;;
21299;SDS011;10809;49.476;11.016;2022-09-06T13:04:04;1.20;;;1.10;;
21299;SDS011;10809;49.476;11.016;2022-09-06T13:06:42;1.38;;;0.77;;
21299;SDS011;10809;49.476;11.016;2022-09-06T13:09:16;1.30;;;1.05;;
21299;SDS011;10809;49.476;11.016;2022-09-06T13:11:49;1.52;;;1.10;;
21299;SDS011;10809;49.476;11.016;2022-09-06T13:14:24;1.58;;;1.40;;
21299;SDS011;10809;49.476;11.016;2022-09-06T13:16:57;1.23;;;1.00;;
21299;SDS011;10809;49.476;11.016;2022-09-06T13:19:30;1.52;;;1.42;;
21299;SDS011;10809;49.476;11.016;2022-09-06T13:22:08;1.08;;;1.08;;
21299;SDS011;10809;49.476;11.016;2022-09-06T13:24:46;2.35;;;1.52;;
21299;SDS011;10809;49.476;11.016;2022-09-06T13:27:35;3.85;;;1.30;;
21299;SDS011;10809;49.476;11.016;2022-09-06T13:30:07;1.25;;;1.15;;
21299;SDS011;10809;49.476;11.016;2022-09-06T13:32:44;1.10;;;1.10;;
21299;SDS011;10809;49.476;11.016;2022-09-06T13:35:23;1.45;;;0.90;;
21299;SDS011;10809;49.476;11.016;2022-09-06T13:40:51;1.75;;;0.90;;
21299;SDS011;10809;49.476;11.016;2022-09-06T13:43:22;3.63;;;1.40;;
21299;SDS011;10809;49.476;11.016;2022-09-06T13:46:06;1.85;;;1.45;;
21299;SDS011;10809;49.476;11.016;2022-09-06T13:48:40;1.15;;;1.05;;
21299;SDS011;10809;49.476;11.016;2022-09-06T13:51:13;2.35;;;1.00;;
21299;SDS011;10809;49.476;11.016;2022-09-06T13:53:43;1.20;;;1.02;;
21299;SDS011;10809;49.476;11.016;2022-09-06T13:56:13;2.10;;;1.10;;
21299;SDS011;10809;49.476;11.016;2022-09-06T13:58:45;2.10;;;1.20;;
21299;SDS011;10809;49.476;11.016;2022-09-06T14:01:16;1.38;;;0.82;;
21299;SDS011;10809;49.476;11.016;2022-09-06T14:03:46;1.45;;;1.20;;
21299;SDS011;10809;49.476;11.016;2022-09-06T14:06:18;2.33;;;1.25;;
21299;SDS011;10809;49.476;11.016;2022-09-06T14:08:48;1.20;;;1.10;;
21299;SDS011;10809;49.476;11.016;2022-09-06T14:11:19;1.67;;;1.40;;
21299;SDS011;10809;49.476;11.016;2022-09-06T14:13:49;1.30;;;1.30;;
21299;SDS011;10809;49.476;11.016;2022-09-06T14:16:20;2.40;;;1.05;;
21299;SDS011;10809;49.476;11.016;2022-09-06T14:18:50;1.15;;;1.08;;
21299;SDS011;10809;49.476;11.016;2022-09-06T14:21:23;1.73;;;1.20;;
21299;SDS011;10809;49.476;11.016;2022-09-06T14:23:54;1.45;;;1.10;;
21299;SDS011;10809;49.476;11.016;2022-09-06T14:26:25;1.38;;;1.27;;
21299;SDS011;10809;49.476;11.016;2022-09-06T14:28:55;1.23;;;1.00;;
21299;SDS011;10809;49.476;11.016;2022-09-06T14:31:29;1.80;;;1.35;;
21299;SDS011;10809;49.476;11.016;2022-09-06T14:34:01;1.58;;;1.05;;
21299;SDS011;10809;49.476;11.016;2022-09-06T14:36:33;1.10;;;1.00;;
21299;SDS011;10809;49.476;11.016;2022-09-06T14:39:03;1.10;;;1.00;;
21299;SDS011;10809;49.476;11.016;2022-09-06T14:41:34;1.15;;;0.85;;
21299;SDS011;10809;49.476;11.016;2022-09-06T14:44:12;2.58;;;1.30;;
21299;SDS011;10809;49.476;11.016;2022-09-06T14:46:44;0.88;;;0.88;;
21299;SDS011;10809;49.476;11.016;2022-09-06T14:49:17;1.70;;;0.73;;
21299;SDS011;10809;49.476;11.016;2022-09-06T14:51:52;0.70;;;0.70;;
21299;SDS011;10809;49.476;11.016;2022-09-06T14:54:23;1.40;;;0.93;;
21299;SDS011;10809;49.476;11.016;2022-09-06T14:56:54;5.63;;;1.00;;
21299;SDS011;10809;49.476;11.016;2022-09-06T14:59:24;1.05;;;1.02;;
21299;SDS011;10809;49.476;11.016;2022-09-06T15:01:55;1.75;;;0.93;;
21299;SDS011;10809;49.476;11.016;2022-09-06T15:04:26;0.70;;;0.70;;
21299;SDS011;10809;49.476;11.016;2022-09-06T15:07:00;1.10;;;1.00;;
21299;SDS011;10809;49.476;11.016;2022-09-06T15:09:31;2.58;;;1.20;;
21299;SDS011;10809;49.476;11.016;2022-09-06T15:12:01;1.35;;;0.60;;
21299;SDS011;10809;49.476;11.016;2022-09-06T15:14:32;1.33;;;1.00;;
21299;SDS011;10809;49.476;11.016;2022-09-06T15:17:05;2.15;;;1.20;;
21299;SDS011;10809;49.476;11.016;2022-09-06T15:19:38;1.10;;;1.00;;
21299;SDS011;10809;49.476;11.016;2022-09-06T15:22:08;1.48;;;1.38;;
21299;SDS011;10809;49.476;11.016;2022-09-06T15:24:39;0.90;;;0.90;;
21299;SDS011;10809;49.476;11.016;2022-09-06T15:27:09;1.00;;;1.00;;
21299;SDS011;10809;49.476;11.016;2022-09-06T15:29:39;0.90;;;0.90;;
21299;SDS011;10809;49.476;11.016;2022-09-06T15:32:11;4.18;;;1.05;;
21299;SDS011;10809;49.476;11.016;2022-09-06T15:34:41;1.23;;;0.90;;
21299;SDS011;10809;49.476;11.016;2022-09-06T15:37:15;0.70;;;0.70;;
21299;SDS011;10809;49.476;11.016;2022-09-06T15:39:45;0.70;;;0.70;;
21299;SDS011;10809;49.476;11.016;2022-09-06T15:42:15;1.42;;;0.88;;
21299;SDS011;10809;49.476;11.016;2022-09-06T15:44:46;1.23;;;0.77;;
21299;SDS011;10809;49.476;11.016;2022-09-06T15:47:16;1.70;;;0.68;;
21299;SDS011;10809;49.476;11.016;2022-09-06T15:49:47;1.17;;;0.68;;
21299;SDS011;10809;49.476;11.016;2022-09-06T15:52:17;1.67;;;0.65;;
21299;SDS011;10809;49.476;11.016;2022-09-06T15:54:48;1.48;;;0.75;;
21299;SDS011;10809;49.476;11.016;2022-09-06T15:57:40;0.60;;;0.60;;
21299;SDS011;10809;49.476;11.016;2022-09-06T16:00:11;1.58;;;1.15;;
21299;SDS011;10809;49.476;11.016;2022-09-06T16:02:42;1.13;;;0.70;;
21299;SDS011;10809;49.476;11.016;2022-09-06T16:05:13;0.68;;;0.65;;
21299;SDS011;10809;49.476;11.016;2022-09-06T16:07:44;0.60;;;0.57;;
21299;SDS011;10809;49.476;11.016;2022-09-06T16:10:14;0.95;;;0.75;;
21299;SDS011;10809;49.476;11.016;2022-09-06T16:12:44;2.08;;;0.65;;
21299;SDS011;10809;49.476;11.016;2022-09-06T16:15:15;1.10;;;0.90;;
21299;SDS011;10809;49.476;11.016;2022-09-06T16:17:49;0.50;;;0.50;;
21299;SDS011;10809;49.476;11.016;2022-09-06T16:20:21;1.80;;;0.63;;
21299;SDS011;10809;49.476;11.016;2022-09-06T16:22:52;0.88;;;0.50;;
21299;SDS011;10809;49.476;11.016;2022-09-06T16:25:22;0.60;;;0.60;;
21299;SDS011;10809;49.476;11.016;2022-09-06T16:27:52;3.17;;;0.60;;
21299;SDS011;10809;49.476;11.016;2022-09-06T16:30:23;0.70;;;0.70;;
21299;SDS011;10809;49.476;11.016;2022-09-06T16:32:53;2.13;;;0.82;;
21299;SDS011;10809;49.476;11.016;2022-09-06T16:35:23;0.80;;;0.80;;
21299;SDS011;10809;49.476;11.016;2022-09-06T16:37:54;2.47;;;0.85;;
21299;SDS011;10809;49.476;11.016;2022-09-06T16:40:24;0.63;;;0.63;;
21299;SDS011;10809;49.476;11.016;2022-09-06T16:42:54;0.73;;;0.73;;
21299;SDS011;10809;49.476;11.016;2022-09-06T16:45:25;3.30;;;0.98;;
21299;SDS011;10809;49.476;11.016;2022-09-06T16:47:56;0.52;;;0.52;;
21299;SDS011;10809;49.476;11.016;2022-09-06T16:50:26;1.05;;;0.60;;
21299;SDS011;10809;49.476;11.016;2022-09-06T16:53:09;1.55;;;0.60;;
21299;SDS011;10809;49.476;11.016;2022-09-06T16:55:39;1.45;;;0.90;;
21299;SDS011;10809;49.476;11.016;2022-09-06T16:58:09;1.17;;;1.08;;
21299;SDS011;10809;49.476;11.016;2022-09-06T17:00:40;1.45;;;0.93;;
21299;SDS011;10809;49.476;11.016;2022-09-06T17:03:12;0.52;;;0.50;;
21299;SDS011;10809;49.476;11.016;2022-09-06T17:05:43;0.77;;;0.68;;
21299;SDS011;10809;49.476;11.016;2022-09-06T17:08:13;0.95;;;0.82;;
21299;SDS011;10809;49.476;11.016;2022-09-06T17:10:43;1.80;;;0.80;;
21299;SDS011;10809;49.476;11.016;2022-09-06T17:13:14;1.25;;;1.13;;
21299;SDS011;10809;49.476;11.016;2022-09-06T17:15:51;1.17;;;0.90;;
21299;SDS011;10809;49.476;11.016;2022-09-06T17:18:41;1.40;;;0.75;;
21299;SDS011;10809;49.476;11.016;2022-09-06T17:21:12;1.13;;;1.00;;
21299;SDS011;10809;49.476;11.016;2022-09-06T17:23:43;2.67;;;0.80;;
21299;SDS011;10809;49.476;11.016;2022-09-06T17:26:16;1.88;;;1.08;;
21299;SDS011;10809;49.476;11.016;2022-09-06T17:28:49;1.63;;;0.93;;
21299;SDS011;10809;49.476;11.016;2022-09-06T17:31:25;1.05;;;0.68;;
21299;SDS011;10809;49.476;11.016;2022-09-06T17:33:55;4.25;;;0.95;;
21299;SDS011;10809;49.476;11.016;2022-09-06T17:36:29;0.90;;;0.90;;
21299;SDS011;10809;49.476;11.016;2022-09-06T17:39:05;2.47;;;0.70;;
21299;SDS011;10809;49.476;11.016;2022-09-06T17:41:44;3.00;;;0.98;;
21299;SDS011;10809;49.476;11.016;2022-09-06T17:44:17;1.50;;;1.00;;
21299;SDS011;10809;49.476;11.016;2022-09-06T17:46:50;1.60;;;0.80;;
21299;SDS011;10809;49.476;11.016;2022-09-06T17:49:21;3.47;;;1.35;;
21299;SDS011;10809;49.476;11.016;2022-09-06T17:51:52;2.20;;;1.13;;
21299;SDS011;10809;49.476;11.016;2022-09-06T17:55:02;2.20;;;1.20;;
21299;SDS011;10809;49.476;11.016;2022-09-06T17:57:33;2.35;;;1.27;;
21299;SDS011;10809;49.476;11.016;2022-09-06T18:00:04;0.70;;;0.70;;
21299;SDS011;10809;49.476;11.016;2022-09-06T18:02:35;1.52;;;1.17;;
21299;SDS011;10809;49.476;11.016;2022-09-06T18:05:18;2.22;;;1.13;;
21299;SDS011;10809;49.476;11.016;2022-09-06T18:11:27;4.22;;;1.30;;
21299;SDS011;10809;49.476;11.016;2022-09-06T18:17:35;1.83;;;1.27;;
21299;SDS011;10809;49.476;11.016;2022-09-06T18:20:06;3.83;;;1.13;;
21299;SDS011;10809;49.476;11.016;2022-09-06T18:22:37;3.75;;;1.00;;
21299;SDS011;10809;49.476;11.016;2022-09-06T18:25:08;2.58;;;1.33;;
21299;SDS011;10809;49.476;11.016;2022-09-06T18:27:38;2.00;;;1.10;;
21299;SDS011;10809;49.476;11.016;2022-09-06T18:30:09;2.15;;;1.02;;
21299;SDS011;10809;49.476;11.016;2022-09-06T18:32:40;3.35;;;1.42;;
21299;SDS011;10809;49.476;11.016;2022-09-06T18:35:10;4.85;;;1.20;;
21299;SDS011;10809;49.476;11.016;2022-09-06T18:37:41;3.08;;;1.10;;
21299;SDS011;10809;49.476;11.016;2022-09-06T18:40:11;5.93;;;1.48;;
21299;SDS011;10809;49.476;11.016;2022-09-06T18:42:42;3.67;;;1.40;;
21299;SDS011;10809;49.476;11.016;2022-09-06T18:45:16;2.42;;;1.70;;
21299;SDS011;10809;49.476;11.016;2022-09-06T18:48:01;6.10;;;2.03;;
21299;SDS011;10809;49.476;11.016;2022-09-06T18:50:35;2.60;;;1.58;;
21299;SDS011;10809;49.476;11.016;2022-09-06T18:53:07;4.63;;;1.50;;
21299;SDS011;10809;49.476;11.016;2022-09-06T18:59:30;2.90;;;1.58;;
21299;SDS011;10809;49.476;11.016;2022-09-06T19:02:01;3.50;;;1.88;;
21299;SDS011;10809;49.476;11.016;2022-09-06T19:04:31;4.18;;;2.38;;
21299;SDS011;10809;49.476;11.016;2022-09-06T19:07:02;3.00;;;1.92;;
21299;SDS011;10809;49.476;11.016;2022-09-06T19:09:34;2.22;;;1.60;;
21299;SDS011;10809;49.476;11.016;2022-09-06T19:12:04;4.68;;;1.67;;
21299;SDS011;10809;49.476;11.016;2022-09-06T19:14:36;3.25;;;1.70;;
21299;SDS011;10809;49.476;11.016;2022-09-06T19:17:07;3.80;;;2.00;;
21299;SDS011;10809;49.476;11.016;2022-09-06T19:19:37;2.13;;;1.58;;
21299;SDS011;10809;49.476;11.016;2022-09-06T19:22:08;4.30;;;2.17;;
21299;SDS011;10809;49.476;11.016;2022-09-06T19:24:38;2.42;;;1.88;;
21299;SDS011;10809;49.476;11.016;2022-09-06T19:27:09;4.75;;;2.35;;
21299;SDS011;10809;49.476;11.016;2022-09-06T19:29:41;3.42;;;1.90;;
21299;SDS011;10809;49.476;11.016;2022-09-06T19:32:11;5.82;;;2.97;;
21299;SDS011;10809;49.476;11.016;2022-09-06T19:34:42;2.53;;;2.30;;
21299;SDS011;10809;49.476;11.016;2022-09-06T19:37:20;4.10;;;2.28;;
21299;SDS011;10809;49.476;11.016;2022-09-06T19:39:53;4.68;;;2.08;;
21299;SDS011;10809;49.476;11.016;2022-09-06T19:42:24;5.85;;;2.65;;
21299;SDS011;10809;49.476;11.016;2022-09-06T19:44:55;2.78;;;2.38;;
21299;SDS011;10809;49.476;11.016;2022-09-06T19:47:25;5.43;;;2.47;;
21299;SDS011;10809;49.476;11.016;2022-09-06T19:49:55;4.82;;;2.05;;
21299;SDS011;10809;49.476;11.016;2022-09-06T19:52:26;4.95;;;2.22;;
21299;SDS011;10809;49.476;11.016;2022-09-06T19:54:56;3.97;;;2.67;;
21299;SDS011;10809;49.476;11.016;2022-09-06T19:57:27;3.38;;;2.75;;
21299;SDS011;10809;49.476;11.016;2022-09-06T19:59:57;3.22;;;2.40;;
21299;SDS011;10809;49.476;11.016;2022-09-06T20:02:27;5.63;;;3.10;;
21299;SDS011;10809;49.476;11.016;2022-09-06T20:04:57;5.75;;;2.63;;
21299;SDS011;10809;49.476;11.016;2022-09-06T20:07:28;5.60;;;2.80;;
21299;SDS011;10809;49.476;11.016;2022-09-06T20:09:58;4.70;;;2.92;;
21299;SDS011;10809;49.476;11.016;2022-09-06T20:12:29;4.35;;;2.60;;
21299;SDS011;10809;49.476;11.016;2022-09-06T20:18:15;4.25;;;2.55;;
21299;SDS011;10809;49.476;11.016;2022-09-06T20:20:51;4.35;;;2.78;;